Terminal Aerodrome Forecast
Issued by NWS Kansas City/Pleasant Hill, MO

Home | Current Version | Previous Version | Text Only | Print | Product List | Glossary On
Versions: 1 2 3 4 5 6 7 8 9 10 11 12 13 14 15 16 17 18 19
000
FTUS43 KEAX 131736
TAFMCI
TAF
KMCI 131736Z 1318/1418 07012KT P6SM OVC028
     FM140100 06006KT P6SM VCSH OVC020
     FM140400 03005KT P6SM VCSH OVC015
     FM141200 02004KT P6SM VCSH OVC010=

USA.gov is the U.S. government's official web portal to all federal, state and local government web resources and services.